createdAt,value
2024-04-24T00:02:57.986Z,10.87
2024-04-24T00:06:30.055Z,10.85
2024-04-24T00:08:58.580Z,10.82
2024-04-24T00:11:27.470Z,10.77
2024-04-24T00:13:58.970Z,10.74
2024-04-24T00:16:27.385Z,10.71
2024-04-24T00:19:15.655Z,10.69
2024-04-24T00:21:44.336Z,10.71
2024-04-24T00:24:16.974Z,10.75
2024-04-24T00:26:45.417Z,10.82
2024-04-24T00:29:13.655Z,10.90
2024-04-24T00:31:49.431Z,10.98
2024-04-24T00:34:18.137Z,11.05
2024-04-24T00:36:52.200Z,11.12
2024-04-24T00:39:22.988Z,11.16
2024-04-24T00:41:51.693Z,11.22
2024-04-24T00:45:20.257Z,11.27
2024-04-24T00:48:50.105Z,11.32
2024-04-24T00:51:42.430Z,11.38
2024-04-24T00:54:10.726Z,11.40
2024-04-24T00:56:39.995Z,11.39
2024-04-24T00:59:11.192Z,11.38
2024-04-24T01:01:39.970Z,11.39
2024-04-24T01:04:13.880Z,11.40
2024-04-24T01:06:42.143Z,11.41
2024-04-24T01:09:10.461Z,11.42
2024-04-24T01:11:38.639Z,11.44
2024-04-24T01:14:07.480Z,11.45
2024-04-24T01:16:41.000Z,11.44
2024-04-24T01:19:42.393Z,11.44
2024-04-24T01:22:28.280Z,11.44
2024-04-24T01:25:29.846Z,11.42
2024-04-24T01:28:18.149Z,11.41
2024-04-24T01:30:49.760Z,11.40
2024-04-24T01:33:21.411Z,11.40
2024-04-24T01:35:50.242Z,11.40
2024-04-24T01:38:21.534Z,11.43
2024-04-24T01:40:52.509Z,11.44
2024-04-24T01:43:40.961Z,11.41
2024-04-24T01:46:12.510Z,11.37
2024-04-24T01:48:43.710Z,11.32
2024-04-24T01:51:30.448Z,11.30
2024-04-24T01:54:01.774Z,11.26
2024-04-24T01:56:32.459Z,11.23
2024-04-24T01:59:01.056Z,11.22
2024-04-24T02:01:50.256Z,11.19
2024-04-24T02:04:18.521Z,11.15
2024-04-24T02:06:49.267Z,11.10
2024-04-24T02:09:17.255Z,11.05
2024-04-24T02:11:51.050Z,11.00
2024-04-24T02:14:24.870Z,10.95
2024-04-24T02:17:09.147Z,10.92
2024-04-24T02:19:42.477Z,10.89
2024-04-24T02:22:11.389Z,10.88
2024-04-24T02:25:07.650Z,10.85
2024-04-24T02:27:41.557Z,10.80
2024-04-24T02:30:16.199Z,10.77
2024-04-24T02:32:44.958Z,10.77
2024-04-24T02:35:22.019Z,10.75
2024-04-24T02:37:50.686Z,10.73
2024-04-24T02:40:21.626Z,10.69
2024-04-24T02:42:50.471Z,10.63
2024-04-24T02:45:21.808Z,10.61
2024-04-24T02:47:53.419Z,10.62
2024-04-24T02:50:22.147Z,10.63
2024-04-24T02:52:51.272Z,10.63
2024-04-24T02:55:25.163Z,10.62
2024-04-24T02:57:56.433Z,10.62
2024-04-24T03:00:27.474Z,10.61
2024-04-24T03:02:59.364Z,10.58
2024-04-24T03:05:28.350Z,10.53
2024-04-24T03:08:31.514Z,10.45
2024-04-24T03:11:00.182Z,10.36
2024-04-24T03:14:00.790Z,10.31
2024-04-24T03:16:35.307Z,10.31
2024-04-24T03:19:09.825Z,10.33
2024-04-24T03:21:44.048Z,10.36
2024-04-24T03:24:15.576Z,10.36
2024-04-24T03:27:01.225Z,10.32
2024-04-24T03:29:41.855Z,10.31
2024-04-24T03:32:10.690Z,10.31
2024-04-24T03:34:47.863Z,10.32
2024-04-24T03:37:36.749Z,10.35
2024-04-24T03:40:05.810Z,10.39
2024-04-24T03:42:45.208Z,10.44
2024-04-24T03:45:16.611Z,10.49
2024-04-24T03:47:45.015Z,10.55
2024-04-24T03:50:16.739Z,10.62
2024-04-24T03:52:48.207Z,10.66
2024-04-24T03:55:19.750Z,10.68
2024-04-24T03:57:50.303Z,10.71
2024-04-24T04:00:24.586Z,10.76
2024-04-24T04:02:53.005Z,10.78
2024-04-24T04:05:24.078Z,10.79
2024-04-24T04:08:01.689Z,10.81
2024-04-24T04:10:29.947Z,10.82
2024-04-24T04:12:57.983Z,10.86
2024-04-24T04:15:26.175Z,10.94
2024-04-24T04:17:57.952Z,11.01
2024-04-24T04:20:26.902Z,11.08
2024-04-24T04:23:05.697Z,11.16
2024-04-24T04:25:34.586Z,11.22
2024-04-24T04:28:13.921Z,11.28
2024-04-24T04:30:42.184Z,11.32
2024-04-24T04:33:10.817Z,11.35
2024-04-24T04:35:39.364Z,11.40
2024-04-24T04:38:07.629Z,11.48
2024-04-24T04:40:38.368Z,11.56
2024-04-24T04:43:15.749Z,11.65
2024-04-24T04:45:43.923Z,11.70
2024-04-24T04:48:41.429Z,11.77
2024-04-24T04:51:21.276Z,11.81
2024-04-24T04:54:09.748Z,11.87
2024-04-24T04:57:46.039Z,11.94
2024-04-24T05:01:34.873Z,12.05
2024-04-24T05:05:06.545Z,12.17
2024-04-24T05:08:55.519Z,12.24
2024-04-24T05:12:21.891Z,12.36
2024-04-24T05:15:30.974Z,12.49
2024-04-24T05:18:25.299Z,12.58
2024-04-24T05:21:01.463Z,12.75
2024-04-24T05:23:54.046Z,12.92
2024-04-24T05:27:04.303Z,13.05
2024-04-24T05:29:55.016Z,13.25
2024-04-24T05:32:44.026Z,13.49
2024-04-24T05:36:04.789Z,13.71
2024-04-24T05:39:06.375Z,13.89
2024-04-24T05:41:59.116Z,14.34
2024-04-24T05:44:39.143Z,14.76
2024-04-24T05:47:45.440Z,14.99
2024-04-24T05:50:27.082Z,15.19
2024-04-24T05:53:21.627Z,15.30
2024-04-24T05:56:26.291Z,15.34
2024-04-24T05:59:57.124Z,15.35
2024-04-24T06:03:11.194Z,15.47
2024-04-24T06:06:27.130Z,16.32
2024-04-24T06:09:39.790Z,18.32
2024-04-24T06:12:21.032Z,20.32
2024-04-24T06:15:41.347Z,21.98
2024-04-24T06:18:46.289Z,23.48
2024-04-24T06:22:11.422Z,24.74
2024-04-24T06:25:24.042Z,25.37
2024-04-24T06:28:24.224Z,25.74
2024-04-24T06:31:21.564Z,26.22
2024-04-24T06:34:50.291Z,26.86
2024-04-24T06:37:18.643Z,27.38
2024-04-24T06:40:09.870Z,27.83
2024-04-24T06:43:03.962Z,28.25
2024-04-24T06:46:08.183Z,28.93
2024-04-24T06:48:57.003Z,29.79
2024-04-24T06:51:32.568Z,30.22
2024-04-24T06:54:04.955Z,30.33
2024-04-24T06:56:52.303Z,30.33
2024-04-24T06:59:58.199Z,30.16
2024-04-24T07:02:47.829Z,29.81
2024-04-24T07:05:33.438Z,30.16
2024-04-24T07:08:13.498Z,30.36
2024-04-24T07:11:01.160Z,30.90
2024-04-24T07:13:34.817Z,31.21
2024-04-24T07:16:42.055Z,31.44
2024-04-24T07:19:23.926Z,31.78
2024-04-24T07:22:15.397Z,32.02
2024-04-24T07:25:00.225Z,31.83
2024-04-24T07:27:51.215Z,31.98
2024-04-24T07:30:36.329Z,32.15
2024-04-24T07:33:49.020Z,32.18
2024-04-24T07:36:58.168Z,32.34
2024-04-24T07:39:43.748Z,32.46
2024-04-24T07:42:14.914Z,32.62
2024-04-24T07:45:01.808Z,32.61
2024-04-24T07:47:50.376Z,32.59
2024-04-24T07:50:31.671Z,32.43
2024-04-24T07:53:23.504Z,32.44
2024-04-24T07:56:21.906Z,32.36
2024-04-24T07:59:05.393Z,32.39
2024-04-24T08:02:02.904Z,32.31
2024-04-24T08:05:40.619Z,32.12
2024-04-24T08:09:22.338Z,31.04
2024-04-24T08:12:26.989Z,30.51
2024-04-24T08:15:29.154Z,29.97
2024-04-24T08:18:00.441Z,30.08
2024-04-24T08:20:28.986Z,29.70
2024-04-24T08:22:57.376Z,29.17
2024-04-24T08:25:46.542Z,28.67
2024-04-24T08:28:18.505Z,28.71
2024-04-24T08:31:14.834Z,28.01
2024-04-24T08:34:10.136Z,27.08
2024-04-24T08:36:38.266Z,26.70
2024-04-24T08:39:09.694Z,26.24
2024-04-24T08:41:45.648Z,25.73
2024-04-24T08:44:49.200Z,24.78
2024-04-24T08:47:43.331Z,24.13
2024-04-24T08:50:20.139Z,23.65
2024-04-24T08:53:03.802Z,23.42
2024-04-24T08:55:40.819Z,23.18
2024-04-24T08:58:19.493Z,23.03
2024-04-24T09:00:48.722Z,22.84
2024-04-24T09:03:52.837Z,23.18
2024-04-24T09:06:34.312Z,23.00
2024-04-24T09:09:03.394Z,23.03
2024-04-24T09:11:34.937Z,23.46
2024-04-24T09:14:07.556Z,23.57
2024-04-24T09:16:40.145Z,23.21
2024-04-24T09:19:08.832Z,22.63
2024-04-24T09:21:43.442Z,22.11
2024-04-24T09:24:23.153Z,21.71
2024-04-24T09:27:34.273Z,21.65
2024-04-24T09:30:15.347Z,21.57
2024-04-24T09:33:34.465Z,21.28
2024-04-24T09:36:14.946Z,20.89
2024-04-24T09:38:56.065Z,21.41
2024-04-24T09:41:48.711Z,22.24
2024-04-24T09:44:19.847Z,22.97
2024-04-24T09:46:52.469Z,23.46
2024-04-24T09:49:37.536Z,23.71
2024-04-24T09:52:30.693Z,23.87
2024-04-24T09:55:11.961Z,24.26
2024-04-24T09:58:00.734Z,24.37
2024-04-24T10:00:30.038Z,24.68
2024-04-24T10:03:47.250Z,24.95
2024-04-24T10:06:44.047Z,24.90
2024-04-24T10:09:27.569Z,25.13
2024-04-24T10:12:09.966Z,25.10
2024-04-24T10:14:42.868Z,25.16
2024-04-24T10:17:32.834Z,25.30
2024-04-24T10:20:12.219Z,25.43
2024-04-24T10:22:55.563Z,25.29
2024-04-24T10:25:33.909Z,25.30
2024-04-24T10:28:04.987Z,25.07
2024-04-24T10:31:18.917Z,24.88
2024-04-24T10:34:33.770Z,24.82
2024-04-24T10:38:08.466Z,24.23
2024-04-24T10:41:12.749Z,23.46
2024-04-24T10:44:04.585Z,23.34
2024-04-24T10:46:33.585Z,23.22
2024-04-24T10:49:12.742Z,23.46
2024-04-24T10:51:55.753Z,23.86
2024-04-24T10:54:53.350Z,24.18
2024-04-24T10:57:48.223Z,24.46
2024-04-24T11:01:03.344Z,24.63
2024-04-24T11:03:52.123Z,24.75
2024-04-24T11:07:05.353Z,24.77
2024-04-24T11:10:12.366Z,24.77
2024-04-24T11:12:47.084Z,24.80
2024-04-24T11:15:21.272Z,24.82
2024-04-24T11:18:12.804Z,24.82
2024-04-24T11:20:42.205Z,24.78
2024-04-24T11:23:10.958Z,24.94
2024-04-24T11:25:58.475Z,25.02
2024-04-24T11:28:34.563Z,25.18
2024-04-24T11:31:12.379Z,25.25
2024-04-24T11:33:50.548Z,25.20
2024-04-24T11:36:20.030Z,25.16
2024-04-24T11:39:12.979Z,25.05
2024-04-24T11:41:50.790Z,25.04
2024-04-24T11:44:22.226Z,25.07
2024-04-24T11:47:00.159Z,25.08
2024-04-24T11:49:29.115Z,24.89
2024-04-24T11:52:20.181Z,24.74
2024-04-24T11:54:58.031Z,24.79
2024-04-24T11:57:39.209Z,24.83
2024-04-24T12:00:13.802Z,24.74
2024-04-24T12:02:44.947Z,24.78
2024-04-24T12:05:13.481Z,24.86
2024-04-24T12:08:34.318Z,24.75
2024-04-24T12:11:42.388Z,24.41
2024-04-24T12:14:19.104Z,24.27
2024-04-24T12:17:07.391Z,24.22
2024-04-24T12:19:54.146Z,24.01
2024-04-24T12:22:23.126Z,23.96
2024-04-24T12:24:53.951Z,23.92
2024-04-24T12:27:34.970Z,23.70
2024-04-24T12:30:07.503Z,23.39
2024-04-24T12:32:56.172Z,23.31
2024-04-24T12:35:40.077Z,23.31
2024-04-24T12:38:12.332Z,23.39
2024-04-24T12:41:16.998Z,23.28
2024-04-24T12:43:51.574Z,22.86
2024-04-24T12:46:19.693Z,22.69
2024-04-24T12:48:57.702Z,22.44
2024-04-24T12:51:46.153Z,22.16
2024-04-24T12:54:21.202Z,21.86
2024-04-24T12:56:54.374Z,21.77
2024-04-24T12:59:39.594Z,21.77
2024-04-24T13:02:14.919Z,21.57
2024-04-24T13:04:45.628Z,21.29
2024-04-24T13:07:17.460Z,21.11
2024-04-24T13:09:49.343Z,20.92
2024-04-24T13:12:23.043Z,20.82
2024-04-24T13:15:07.993Z,20.88
2024-04-24T13:17:45.407Z,20.91
2024-04-24T13:20:40.175Z,20.89
2024-04-24T13:24:11.922Z,20.96
2024-04-24T13:28:00.869Z,20.93
2024-04-24T13:31:05.559Z,21.06
2024-04-24T13:34:03.491Z,21.29
2024-04-24T13:36:37.236Z,21.31
2024-04-24T13:39:13.302Z,21.38
2024-04-24T13:41:52.438Z,21.33
2024-04-24T13:44:21.518Z,21.34
2024-04-24T13:47:01.059Z,21.44
2024-04-24T13:49:29.981Z,21.63
2024-04-24T13:52:29.888Z,21.75
2024-04-24T13:54:58.292Z,21.88
2024-04-24T13:57:36.163Z,21.92
2024-04-24T14:00:08.093Z,21.99
2024-04-24T14:02:54.317Z,22.09
2024-04-24T14:05:43.213Z,22.11
2024-04-24T14:08:59.866Z,21.98
2024-04-24T14:12:20.229Z,21.90
2024-04-24T14:15:10.478Z,21.87
2024-04-24T14:18:05.853Z,21.88
2024-04-24T14:20:37.217Z,21.89
2024-04-24T14:23:06.134Z,21.78
2024-04-24T14:25:35.659Z,21.53
2024-04-24T14:28:27.567Z,21.32
2024-04-24T14:31:04.496Z,20.98
2024-04-24T14:33:56.638Z,20.81
2024-04-24T14:36:45.248Z,20.72
2024-04-24T14:39:22.184Z,20.75
2024-04-24T14:42:26.046Z,20.79
2024-04-24T14:45:14.996Z,20.72
2024-04-24T14:47:56.378Z,20.62
2024-04-24T14:50:35.149Z,20.59
2024-04-24T14:53:16.024Z,20.55
2024-04-24T14:55:58.495Z,20.50
2024-04-24T14:58:29.828Z,20.45
2024-04-24T15:01:09.823Z,20.35
2024-04-24T15:03:41.326Z,20.19
2024-04-24T15:06:39.534Z,20.04
2024-04-24T15:09:36.860Z,19.86
2024-04-24T15:13:04.572Z,19.67
2024-04-24T15:16:06.351Z,19.39
2024-04-24T15:18:35.246Z,19.32
2024-04-24T15:21:07.474Z,19.26
2024-04-24T15:24:07.952Z,19.23
2024-04-24T15:26:41.915Z,19.16
2024-04-24T15:29:15.467Z,19.10
2024-04-24T15:33:03.845Z,18.96
2024-04-24T15:36:28.771Z,18.65
2024-04-24T15:39:11.505Z,18.33
2024-04-24T15:42:07.743Z,18.10
2024-04-24T15:45:37.545Z,17.87
2024-04-24T15:48:58.124Z,17.60
2024-04-24T15:51:43.104Z,17.52
2024-04-24T15:54:41.579Z,17.44
2024-04-24T15:57:16.482Z,17.34
2024-04-24T15:59:47.880Z,17.25
2024-04-24T16:02:49.531Z,17.11
2024-04-24T16:06:37.748Z,16.95
2024-04-24T16:10:26.630Z,16.77
2024-04-24T16:14:16.514Z,16.60
2024-04-24T16:17:36.331Z,16.46
2024-04-24T16:20:32.594Z,16.36
2024-04-24T16:24:08.100Z,16.28
2024-04-24T16:26:59.568Z,16.17
2024-04-24T16:30:03.752Z,16.11
2024-04-24T16:33:08.733Z,16.05
2024-04-24T16:36:17.459Z,15.95
2024-04-24T16:39:38.355Z,15.87
2024-04-24T16:42:47.517Z,15.78
2024-04-24T16:46:13.627Z,15.67
2024-04-24T16:48:54.815Z,15.61
2024-04-24T16:52:08.900Z,15.56
2024-04-24T16:55:04.219Z,15.49
2024-04-24T16:57:45.547Z,15.39
2024-04-24T17:00:47.590Z,15.33
2024-04-24T17:03:29.680Z,15.28
2024-04-24T17:06:51.647Z,15.26
2024-04-24T17:09:47.335Z,15.22
2024-04-24T17:12:26.920Z,15.19
2024-04-24T17:15:02.124Z,15.15
2024-04-24T17:17:59.186Z,15.08
2024-04-24T17:21:09.574Z,15.00
2024-04-24T17:24:01.731Z,14.93
2024-04-24T17:27:10.530Z,14.86
2024-04-24T17:30:07.550Z,14.71
2024-04-24T17:33:37.620Z,14.53
2024-04-24T17:37:02.194Z,14.31
2024-04-24T17:40:14.453Z,14.13
2024-04-24T17:43:13.595Z,13.98
2024-04-24T17:47:02.427Z,13.89
2024-04-24T17:49:48.837Z,13.70
2024-04-24T17:53:04.801Z,13.52
2024-04-24T17:55:56.458Z,13.31
2024-04-24T17:59:40.482Z,13.19
2024-04-24T18:03:08.515Z,13.07
2024-04-24T18:06:47.752Z,13.02
2024-04-24T18:10:36.550Z,12.96
2024-04-24T18:14:08.324Z,12.84
2024-04-24T18:17:49.999Z,12.74
2024-04-24T18:21:32.596Z,12.68
2024-04-24T18:25:16.324Z,12.59
2024-04-24T18:29:05.472Z,12.48
2024-04-24T18:32:54.552Z,12.33
2024-04-24T18:36:36.581Z,12.23
2024-04-24T18:40:25.520Z,12.16
2024-04-24T18:44:07.651Z,12.06
2024-04-24T18:47:21.712Z,11.98
2024-04-24T18:50:54.004Z,11.88
2024-04-24T18:54:15.613Z,11.77
2024-04-24T18:57:37.073Z,11.67
2024-04-24T19:00:46.236Z,11.59
2024-04-24T19:04:12.557Z,11.52
2024-04-24T19:07:33.406Z,11.47
2024-04-24T19:10:59.729Z,11.41
2024-04-24T19:14:31.392Z,11.36
2024-04-24T19:17:53.946Z,11.33
2024-04-24T19:21:31.993Z,11.28
2024-04-24T19:24:51.097Z,11.22
2024-04-24T19:28:30.586Z,11.17
2024-04-24T19:32:18.457Z,11.07
2024-04-24T19:35:59.113Z,11.01
2024-04-24T19:39:40.181Z,10.93
2024-04-24T19:43:28.388Z,10.87
2024-04-24T19:47:17.596Z,10.79
2024-04-24T19:50:49.609Z,10.71
2024-04-24T19:54:13.099Z,10.63
2024-04-24T19:57:36.091Z,10.60
2024-04-24T20:01:16.476Z,10.58
2024-04-24T20:04:48.476Z,10.53
2024-04-24T20:08:20.377Z,10.46
2024-04-24T20:11:53.180Z,10.38
2024-04-24T20:15:33.840Z,10.34
2024-04-24T20:19:03.214Z,10.30
2024-04-24T20:22:45.362Z,10.24
2024-04-24T20:26:14.032Z,10.19
2024-04-24T20:29:22.639Z,10.13
2024-04-24T20:32:13.441Z,10.11
2024-04-24T20:35:41.012Z,10.11
2024-04-24T20:38:24.240Z,10.07
2024-04-24T20:41:42.355Z,10.01
2024-04-24T20:45:04.985Z,9.95
2024-04-24T20:48:47.268Z,9.87
2024-04-24T20:51:43.409Z,9.83
2024-04-24T20:55:04.745Z,9.77
2024-04-24T20:58:16.339Z,9.74
2024-04-24T21:01:45.213Z,9.68
2024-04-24T21:05:17.098Z,9.65
2024-04-24T21:08:31.158Z,9.57
2024-04-24T21:12:03.067Z,9.53
2024-04-24T21:15:43.538Z,9.45
2024-04-24T21:18:57.652Z,9.40
2024-04-24T21:22:45.792Z,9.38
2024-04-24T21:26:29.748Z,9.33
2024-04-24T21:30:08.633Z,9.29
2024-04-24T21:33:38.827Z,9.27
2024-04-24T21:36:56.402Z,9.31
2024-04-24T21:40:28.373Z,9.38
2024-04-24T21:43:27.696Z,9.41
2024-04-24T21:47:01.836Z,9.42
2024-04-24T21:50:25.939Z,9.43
2024-04-24T21:53:35.109Z,9.50
2024-04-24T21:56:49.291Z,9.58
2024-04-24T22:00:18.111Z,9.63
2024-04-24T22:03:43.040Z,9.68
2024-04-24T22:07:05.164Z,9.74
2024-04-24T22:10:17.582Z,9.78
2024-04-24T22:13:39.835Z,9.79
2024-04-24T22:17:19.147Z,9.79
2024-04-24T22:20:54.991Z,9.81
2024-04-24T22:24:22.533Z,9.83
2024-04-24T22:28:05.573Z,9.84
2024-04-24T22:31:39.983Z,9.87
2024-04-24T22:35:08.938Z,9.90
2024-04-24T22:37:57.430Z,9.93
2024-04-24T22:41:45.197Z,9.93
2024-04-24T22:45:26.907Z,9.95
2024-04-24T22:48:41.313Z,10.00
2024-04-24T22:52:19.636Z,10.02
2024-04-24T22:56:08.470Z,10.04
2024-04-24T22:59:21.530Z,10.02
2024-04-24T23:02:21.236Z,10.04
2024-04-24T23:05:27.779Z,10.06
2024-04-24T23:09:06.756Z,10.10
2024-04-24T23:11:59.925Z,10.12
2024-04-24T23:14:56.868Z,10.08
2024-04-24T23:17:53.965Z,10.03
2024-04-24T23:21:10.226Z,10.01
2024-04-24T23:24:27.623Z,9.98
2024-04-24T23:28:25.285Z,9.95
2024-04-24T23:32:14.296Z,9.90
2024-04-24T23:35:36.224Z,9.85
2024-04-24T23:39:05.212Z,9.86
2024-04-24T23:42:42.748Z,9.89
2024-04-24T23:45:54.121Z,9.90
2024-04-24T23:49:28.369Z,9.93
2024-04-24T23:52:12.128Z,9.90
2024-04-24T23:55:41.934Z,9.87
2024-04-24T23:58:54.397Z,9.75
